createdAt,value
2023-01-12T00:04:00.602Z,15.80
2023-01-12T00:08:18.134Z,18.30
2023-01-12T00:12:35.551Z,15.25
2023-01-12T00:16:53.057Z,12.93
2023-01-12T00:21:11.112Z,13.25
2023-01-12T00:25:28.599Z,14.38
2023-01-12T00:29:46.921Z,13.15
2023-01-12T00:34:04.366Z,13.73
2023-01-12T00:38:21.863Z,10.25
2023-01-12T00:42:58.162Z,10.00
2023-01-12T00:47:17.059Z,9.93
2023-01-12T00:51:34.640Z,9.10
2023-01-12T00:55:52.686Z,7.93
2023-01-12T01:00:10.977Z,6.93
2023-01-12T01:04:28.783Z,7.43
2023-01-12T01:08:46.277Z,6.57
2023-01-12T01:13:05.016Z,5.63
2023-01-12T01:17:22.536Z,4.85
2023-01-12T01:21:40.446Z,4.82
2023-01-12T01:26:03.963Z,4.40
2023-01-12T01:30:21.676Z,4.70
2023-01-12T01:34:39.357Z,5.30
2023-01-12T01:38:57.126Z,4.90
2023-01-12T01:43:16.913Z,5.07
2023-01-12T01:47:43.373Z,5.22
2023-01-12T01:52:11.247Z,5.00
2023-01-12T01:56:31.832Z,4.57
2023-01-12T02:00:49.763Z,5.07
2023-01-12T02:05:09.071Z,6.45
2023-01-12T02:09:28.702Z,5.07
2023-01-12T02:14:05.175Z,4.97
2023-01-12T02:18:45.667Z,6.35
2023-01-12T02:23:36.334Z,5.93
2023-01-12T02:28:19.731Z,4.40
2023-01-12T02:33:08.637Z,5.10
2023-01-12T02:37:45.940Z,4.45
2023-01-12T02:42:32.692Z,5.47
2023-01-12T02:46:52.325Z,3.88
2023-01-12T02:51:29.359Z,4.03
2023-01-12T02:55:47.877Z,4.15
2023-01-12T03:04:24.907Z,4.07
2023-01-12T03:08:42.725Z,4.13
2023-01-12T03:13:07.808Z,4.27
2023-01-12T03:17:39.046Z,4.97
2023-01-12T03:22:11.927Z,5.35
2023-01-12T03:26:32.266Z,4.78
2023-01-12T03:30:57.457Z,4.95
2023-01-12T03:35:15.145Z,4.18
2023-01-12T03:39:59.546Z,4.97
2023-01-12T03:44:30.460Z,4.35
2023-01-12T03:49:13.755Z,5.90
2023-01-12T03:53:33.817Z,5.15
2023-01-12T03:57:54.048Z,4.90
2023-01-12T04:02:12.307Z,5.97
2023-01-12T04:06:29.966Z,4.60
2023-01-12T04:10:47.626Z,4.93
2023-01-12T04:15:06.279Z,4.33
2023-01-12T04:19:24.414Z,4.30
2023-01-12T04:23:41.971Z,5.33
2023-01-12T04:28:04.020Z,4.32
2023-01-12T04:32:21.927Z,4.20
2023-01-12T04:36:42.028Z,4.43
2023-01-12T04:40:59.659Z,4.20
2023-01-12T04:45:17.481Z,4.17
2023-01-12T04:49:35.312Z,4.88
2023-01-12T04:53:53.366Z,5.23
2023-01-12T04:58:11.056Z,5.13
2023-01-12T05:02:28.738Z,5.53
2023-01-12T05:06:46.013Z,5.93
2023-01-12T05:11:03.591Z,4.80
2023-01-12T05:15:22.302Z,5.15
2023-01-12T05:19:39.847Z,5.45
2023-01-12T05:23:57.460Z,5.38
2023-01-12T05:28:15.793Z,6.03
2023-01-12T05:36:56.140Z,5.60
2023-01-12T05:41:14.859Z,6.10
2023-01-12T05:45:32.277Z,5.40
2023-01-12T05:49:49.950Z,6.05
2023-01-12T05:54:07.505Z,6.60
2023-01-12T05:58:25.906Z,5.75
2023-01-12T06:02:43.446Z,6.47
2023-01-12T06:07:01.286Z,5.72
2023-01-12T06:11:38.439Z,5.63
2023-01-12T06:16:05.746Z,5.05
2023-01-12T06:20:23.381Z,5.50
2023-01-12T06:24:41.173Z,5.33
2023-01-12T06:28:58.834Z,6.43
2023-01-12T06:33:16.615Z,5.40
2023-01-12T06:37:34.279Z,7.57
2023-01-12T06:42:10.732Z,7.63
2023-01-12T06:46:28.858Z,7.68
2023-01-12T06:50:46.553Z,7.28
2023-01-12T06:55:04.861Z,5.83
2023-01-12T06:59:22.364Z,7.30
2023-01-12T07:03:40.365Z,7.60
2023-01-12T07:08:00.729Z,8.07
2023-01-12T07:12:18.485Z,6.03
2023-01-12T07:16:37.599Z,7.80
2023-01-12T07:20:55.172Z,7.72
2023-01-12T07:25:12.678Z,8.80
2023-01-12T07:29:30.886Z,10.07
2023-01-12T07:33:53.171Z,8.65
2023-01-12T07:38:11.070Z,9.18
2023-01-12T07:42:28.830Z,8.32
2023-01-12T07:46:46.708Z,9.17
2023-01-12T07:51:04.458Z,8.80
2023-01-12T07:55:22.269Z,8.68
2023-01-12T07:59:40.047Z,7.83
2023-01-12T08:03:57.731Z,9.13
2023-01-12T08:08:15.436Z,9.33
2023-01-12T08:12:32.981Z,8.23
2023-01-12T08:16:51.246Z,7.05
2023-01-12T08:21:14.861Z,9.48
2023-01-12T08:25:38.871Z,25.42
2023-01-12T08:30:00.360Z,14.50
2023-01-12T08:34:18.053Z,10.13
2023-01-12T08:38:35.964Z,9.57
2023-01-12T08:42:53.424Z,10.00
2023-01-12T08:47:30.607Z,9.27
2023-01-12T08:51:48.225Z,10.27
2023-01-12T08:56:07.453Z,7.83
2023-01-12T09:00:25.211Z,9.15
2023-01-12T09:04:42.739Z,13.00
2023-01-12T09:09:08.487Z,8.85
2023-01-12T09:13:26.141Z,9.30
2023-01-12T09:17:45.935Z,12.73
2023-01-12T09:22:03.482Z,8.05
2023-01-12T09:26:31.703Z,13.77
2023-01-12T09:30:49.421Z,8.75
2023-01-12T09:35:07.888Z,10.32
2023-01-12T09:39:28.258Z,8.63
2023-01-12T09:44:05.703Z,7.28
2023-01-12T09:48:24.269Z,10.02
2023-01-12T09:53:06.077Z,12.07
2023-01-12T09:57:58.082Z,12.18
2023-01-12T10:02:16.206Z,19.30
2023-01-12T10:06:36.098Z,12.05
2023-01-12T10:11:29.010Z,9.95
2023-01-12T10:16:03.309Z,9.13
2023-01-12T10:20:42.566Z,11.35
2023-01-12T10:25:00.418Z,9.90
2023-01-12T10:29:18.002Z,9.30
2023-01-12T10:33:36.425Z,6.95
2023-01-12T10:42:36.290Z,9.13
2023-01-12T10:47:17.263Z,7.20
2023-01-12T10:51:36.355Z,11.07
2023-01-12T10:55:55.716Z,14.93
2023-01-12T11:00:26.417Z,7.85
2023-01-12T11:04:52.813Z,10.60
2023-01-12T11:09:23.171Z,5.72
2023-01-12T11:13:41.002Z,5.85
2023-01-12T11:18:42.157Z,4.97
2023-01-12T11:23:04.046Z,4.93
2023-01-12T11:27:46.972Z,5.80
2023-01-12T11:32:17.200Z,4.95
2023-01-12T11:36:42.812Z,5.93
2023-01-12T11:41:00.846Z,7.13
2023-01-12T11:45:28.684Z,8.82
2023-01-12T11:50:18.676Z,11.98
2023-01-12T11:54:38.922Z,7.05
2023-01-12T11:59:32.771Z,9.13
2023-01-12T12:04:00.145Z,12.73
2023-01-12T12:08:22.865Z,9.15
2023-01-12T12:13:04.549Z,14.27
2023-01-12T12:17:45.258Z,12.05
2023-01-12T12:23:04.864Z,12.60
2023-01-12T12:27:37.947Z,8.85
2023-01-12T12:32:10.658Z,4.53
2023-01-12T12:36:39.502Z,3.95
2023-01-12T12:42:02.513Z,3.38
2023-01-12T12:46:40.761Z,4.47
2023-01-12T12:51:07.259Z,3.28
2023-01-12T12:55:25.579Z,3.47
2023-01-12T13:00:00.339Z,3.05
2023-01-12T13:04:43.360Z,3.63
2023-01-12T13:09:16.666Z,3.85
2023-01-12T13:13:37.595Z,4.57
2023-01-12T13:17:55.983Z,3.45
2023-01-12T13:22:32.558Z,2.75
2023-01-12T13:26:52.887Z,2.40
2023-01-12T13:31:31.726Z,3.35
2023-01-12T13:35:49.150Z,2.70
2023-01-12T13:40:19.986Z,3.00
2023-01-12T13:44:42.256Z,6.05
2023-01-12T13:49:01.078Z,8.20
2023-01-12T13:53:28.616Z,4.47
2023-01-12T13:57:57.461Z,10.40
2023-01-12T14:02:18.829Z,9.13
2023-01-12T14:07:40.345Z,14.80
2023-01-12T14:12:19.146Z,7.70
2023-01-12T14:17:04.701Z,8.85
2023-01-12T14:21:28.253Z,7.50
2023-01-12T14:26:02.525Z,4.97
2023-01-12T14:30:22.234Z,4.40
2023-01-12T14:34:47.131Z,13.38
2023-01-12T14:39:14.753Z,10.48
2023-01-12T14:43:53.604Z,6.63
2023-01-12T14:48:24.192Z,8.52
2023-01-12T14:52:45.354Z,21.67
2023-01-12T14:57:26.237Z,11.20
2023-01-12T15:02:07.799Z,15.00
2023-01-12T15:06:25.705Z,16.52
2023-01-12T15:10:44.545Z,18.33
2023-01-12T15:16:02.713Z,19.35
2023-01-12T15:20:39.217Z,16.88
2023-01-12T15:25:16.833Z,18.35
2023-01-12T15:29:34.739Z,26.47
2023-01-12T15:33:52.614Z,20.43
2023-01-12T15:38:13.802Z,33.03
2023-01-12T15:42:31.284Z,33.58
2023-01-12T15:46:49.068Z,60.65
2023-01-12T15:51:10.463Z,34.50
2023-01-12T15:55:31.699Z,20.38
2023-01-12T15:59:49.192Z,16.48
2023-01-12T16:04:40.978Z,17.70
2023-01-12T16:08:51.885Z,23.63
2023-01-12T16:13:12.240Z,19.00
2023-01-12T16:17:29.875Z,42.88
2023-01-12T16:21:48.023Z,11.73
2023-01-12T16:26:07.052Z,22.67
2023-01-12T16:30:25.169Z,10.65
2023-01-12T16:34:43.016Z,11.05
2023-01-12T16:39:00.542Z,9.83
2023-01-12T16:43:21.446Z,7.22
2023-01-12T16:47:38.952Z,6.20
2023-01-12T16:51:57.124Z,7.78
2023-01-12T16:56:16.681Z,5.97
2023-01-12T17:00:34.496Z,4.85
2023-01-12T17:04:52.661Z,7.63
2023-01-12T17:09:10.594Z,10.48
2023-01-12T17:13:39.199Z,6.60
2023-01-12T17:18:00.596Z,9.85
2023-01-12T17:22:18.868Z,15.05
2023-01-12T17:26:39.235Z,11.13
2023-01-12T17:30:58.267Z,11.65
2023-01-12T17:35:15.930Z,15.07
2023-01-12T17:39:35.162Z,19.08
2023-01-12T17:43:52.906Z,15.35
2023-01-12T17:48:12.319Z,12.32
2023-01-12T17:52:29.790Z,10.85
2023-01-12T17:56:47.909Z,15.40
2023-01-12T18:01:12.981Z,11.13
2023-01-12T18:05:31.538Z,11.93
2023-01-12T18:14:08.928Z,15.68
2023-01-12T18:18:26.696Z,15.20
2023-01-12T18:22:45.018Z,15.67
2023-01-12T18:27:03.154Z,18.58
2023-01-12T18:31:24.224Z,18.73
2023-01-12T18:35:42.114Z,18.88
2023-01-12T18:39:59.615Z,21.37
2023-01-12T18:44:17.896Z,23.33
2023-01-12T18:48:35.632Z,20.00
2023-01-12T18:53:11.865Z,19.10
2023-01-12T18:57:32.857Z,19.45
2023-01-12T19:01:50.536Z,32.67
2023-01-12T19:06:38.559Z,25.37
2023-01-12T19:11:08.422Z,25.35
2023-01-12T19:15:44.906Z,25.30
2023-01-12T19:20:10.085Z,30.00
2023-01-12T19:24:46.877Z,23.80
2023-01-12T19:29:04.380Z,30.58
2023-01-12T19:33:23.380Z,32.15
2023-01-12T19:37:46.058Z,34.95
2023-01-12T19:42:22.872Z,25.25
2023-01-12T19:46:40.570Z,21.60
2023-01-12T19:51:10.295Z,17.13
2023-01-12T19:55:28.253Z,16.20
2023-01-12T19:59:48.556Z,22.47
2023-01-12T20:04:06.087Z,15.45
2023-01-12T20:08:25.534Z,13.52
2023-01-12T20:12:43.414Z,12.65
2023-01-12T20:17:00.948Z,12.25
2023-01-12T20:21:18.743Z,12.68
2023-01-12T20:25:36.448Z,11.70
2023-01-12T20:29:54.268Z,11.60
2023-01-12T20:34:13.462Z,11.03
2023-01-12T20:38:31.570Z,13.15
2023-01-12T20:42:49.088Z,11.30
2023-01-12T20:47:06.997Z,10.95
2023-01-12T20:51:24.779Z,9.05
2023-01-12T20:55:50.786Z,9.23
2023-01-12T21:00:10.465Z,10.30
2023-01-12T21:04:28.093Z,9.65
2023-01-12T21:08:47.343Z,13.05
2023-01-12T21:13:06.103Z,13.27
2023-01-12T21:17:23.667Z,15.60
2023-01-12T21:21:41.387Z,15.85
2023-01-12T21:25:59.521Z,18.23
2023-01-12T21:30:17.687Z,18.35
2023-01-12T21:34:42.361Z,18.63
2023-01-12T21:39:00.022Z,19.38
2023-01-12T21:43:18.548Z,18.48
2023-01-12T21:47:35.981Z,17.02
2023-01-12T21:51:53.576Z,14.95
2023-01-12T21:56:13.333Z,9.40
2023-01-12T22:00:31.036Z,9.70
2023-01-12T22:04:48.728Z,7.55
2023-01-12T22:09:06.223Z,6.17
2023-01-12T22:13:23.808Z,5.82
2023-01-12T22:17:41.956Z,7.00
2023-01-12T22:21:59.697Z,5.78
2023-01-12T22:26:18.816Z,7.03
2023-01-12T22:30:36.611Z,9.10
2023-01-12T22:34:58.681Z,7.78
2023-01-12T22:39:16.398Z,6.95
2023-01-12T22:43:40.556Z,5.17
2023-01-12T22:47:58.247Z,4.97
2023-01-12T22:52:15.927Z,7.38
2023-01-12T22:56:33.421Z,5.77
2023-01-12T23:00:54.158Z,5.68
2023-01-12T23:05:11.659Z,5.77
2023-01-12T23:09:29.255Z,6.72
2023-01-12T23:13:47.450Z,11.57
2023-01-12T23:18:06.904Z,8.55
2023-01-12T23:22:24.552Z,5.72
2023-01-12T23:26:42.109Z,5.07
2023-01-12T23:31:12.081Z,5.63
2023-01-12T23:35:35.561Z,4.28
2023-01-12T23:39:53.179Z,5.00
2023-01-12T23:44:11.077Z,3.70
2023-01-12T23:48:29.880Z,4.13
2023-01-12T23:52:50.490Z,4.57
2023-01-12T23:57:08.104Z,4.50
